Duluth, GA

12:07 PM EDT en Septiembre 21, 2014 (GMT -0400)
Gravitt Area, Duluth, GA | Change Station
CLOSE
Current Station
Estación meteorológica personal
Location: Duluth, GA
Altura: 951 ft
Estaciones meteorológicas cercanas

Alt 951 ft 33.96 °N, 84.16 °W | Updated 2 seconds ago

Despejado
Despejado
79.5 ° F
Sensación térmica 81 ° F
N
3.5
Viento Variable Viento desde Sur
Gusts 3.5 mph

Hoy
Alta -- | Baja -- ° F
--% Posibilidad de precipitaciones
Ayer
Alta -- | Baja -- ° F
Precip. -- pul
7:23 AM 7:34 PM
Creciente menguante, 6% visible
Presión 30.02 pul
Visibilidad 10.0 Millas
Nubes Despejado
Índice de calor 81 ° F
Punto de rocío 65 ° F
Humedad 62%
Precipitaciones 0.00 pul
Espesor de la nieve No disponible.
UV 7 de una escala de 12
Polen 8.30 de una escala de 12
Ozono Buena
PM2.5 Moderada
Flu Activity No disponible.
METAR KPDK 211553Z 27010KT 10SM CLR 27/17 A3006 RMK AO2 SLP164 T02720172

More Conditions Fewer Conditions

Presión 30.02 pul
Visibilidad 10.0 Millas
Nubes Despejado
Índice de calor 81 ° F
Punto de rocío 65 ° F
Humedad 62%
Precipitaciones 0.00 pul
Espesor de la nieve No disponible.
UV 7 de una escala de 12
Polen 8.30 de una escala de 12
Ozono Buena
PM2.5 Moderada
Flu Activity No disponible.
METAR KPDK 211553Z 27010KT 10SM CLR 27/17 A3006 RMK AO2 SLP164 T02720172

More Conditions Fewer Conditions

10-Day Weather Forecast

Almanac

Astronomía

Sep. 21, 2014 Salida Puesta
Hora real 7:23 AM EDT 7:34 PM EDT
Crepúsculo civil 6:59 AM EDT 7:59 PM EDT
Crepúsculo náutico 6:29 AM EDT 8:28 PM EDT
Crepúsculo astronómico 6:00 AM EDT 8:58 PM EDT
Luna 5:02 AM EDT 6:06 PM EDT
Horas de luz 13h 00m
Horas de luz
12h 10m
Tomorrow will be 2m 6s shorter.
Creciente menguante, 6% of the Moon is Illuminated
Hoy
Creciente menguante
Sep 24
Nueva
Oct 1
Cuarto creciente
Oct 8
Luna llena
Oct 15
Cuarto menguante

Extremos de hoy

Máximos del estado Bajos del estado

Community

WunderPhotos

Upload Photos

1,755,181 ¡fotos cargadas!

Nearby

Calidad del aire

  Calidad del aire Índice AQ Contaminante
Ayer Buena
PM10
Ayer Buena
OZONE
Real Moderada
PM2.5
Real Buena
OZONE
Domingo Moderada
PM2.5
Domingo Buena
OZONE

Grosos de nieve

Estación Profundido Altura
No tenemos constancia de nieve nueva.

Actividad de terremotos

Ciudad Distance Mag. Tiempo y dato
Sweetwater, Tennessee 115 Millas 2.5 3:54 PM EDT
2014-09-20
Magnitud mínima muestra es 2,5.

Temperaturas de aguas costeras

Lugar Temperatura
Sin partes meteorológicos de las estaciones

Estaciones meteorológicas cercanas